createdAt,value
2023-03-30T00:01:17.487Z,33.78
2023-03-30T00:03:50.525Z,33.70
2023-03-30T00:06:26.648Z,35.83
2023-03-30T00:08:58.493Z,34.75
2023-03-30T00:11:27.589Z,35.05
2023-03-30T00:13:54.988Z,34.92
2023-03-30T00:16:30.952Z,36.20
2023-03-30T00:18:57.860Z,33.88
2023-03-30T00:21:28.044Z,34.53
2023-03-30T00:23:57.635Z,35.72
2023-03-30T00:26:27.284Z,34.40
2023-03-30T00:28:53.922Z,34.33
2023-03-30T00:31:20.739Z,33.97
2023-03-30T00:33:47.995Z,35.13
2023-03-30T00:36:16.606Z,34.70
2023-03-30T00:38:44.136Z,35.83
2023-03-30T00:41:12.179Z,35.10
2023-03-30T00:44:08.043Z,34.67
2023-03-30T00:46:36.004Z,33.75
2023-03-30T00:49:13.932Z,36.95
2023-03-30T00:51:45.086Z,34.97
2023-03-30T00:54:22.710Z,37.60
2023-03-30T00:56:54.105Z,35.70
2023-03-30T00:59:20.794Z,34.67
2023-03-30T01:01:50.318Z,34.60
2023-03-30T01:04:17.258Z,34.60
2023-03-30T01:06:48.671Z,36.10
2023-03-30T01:09:16.983Z,33.42
2023-03-30T01:11:44.773Z,34.53
2023-03-30T01:14:16.822Z,35.63
2023-03-30T01:17:17.099Z,33.65
2023-03-30T01:20:29.050Z,35.22
2023-03-30T01:24:11.076Z,34.15
2023-03-30T01:27:08.660Z,35.15
2023-03-30T01:29:54.911Z,33.78
2023-03-30T01:32:58.215Z,35.60
2023-03-30T01:36:21.974Z,34.25
2023-03-30T01:39:29.285Z,34.05
2023-03-30T01:42:37.184Z,34.75
2023-03-30T01:46:02.075Z,34.97
2023-03-30T01:49:29.292Z,36.65
2023-03-30T01:52:17.881Z,33.08
2023-03-30T01:55:00.522Z,35.30
2023-03-30T01:58:02.727Z,36.20
2023-03-30T02:00:38.266Z,38.25
2023-03-30T02:03:17.069Z,36.88
2023-03-30T02:05:50.969Z,34.17
2023-03-30T02:08:32.857Z,37.30
2023-03-30T02:11:00.185Z,34.67
2023-03-30T02:13:43.721Z,34.90
2023-03-30T02:16:27.226Z,35.72
2023-03-30T02:18:54.727Z,33.83
2023-03-30T02:21:22.480Z,35.72
2023-03-30T02:23:55.834Z,34.70
2023-03-30T02:26:27.890Z,36.47
2023-03-30T02:28:55.131Z,35.60
2023-03-30T02:31:22.427Z,34.22
2023-03-30T02:34:56.981Z,36.83
2023-03-30T02:37:52.547Z,36.20
2023-03-30T02:40:44.027Z,34.40
2023-03-30T02:43:56.441Z,34.95
2023-03-30T02:47:04.982Z,32.90
2023-03-30T02:50:04.110Z,35.08
2023-03-30T02:53:02.218Z,34.13
2023-03-30T02:56:06.766Z,32.50
2023-03-30T02:58:55.118Z,33.40
2023-03-30T03:01:43.089Z,31.25
2023-03-30T03:04:12.954Z,32.22
2023-03-30T03:06:44.536Z,34.30
2023-03-30T03:09:15.281Z,32.95
2023-03-30T03:11:45.484Z,32.55
2023-03-30T03:14:12.190Z,34.80
2023-03-30T03:16:43.717Z,35.03
2023-03-30T03:19:10.669Z,32.78
2023-03-30T03:21:45.007Z,32.65
2023-03-30T03:26:44.067Z,33.30
2023-03-30T03:29:10.842Z,33.30
2023-03-30T03:31:38.130Z,34.55
2023-03-30T03:34:05.389Z,35.80
2023-03-30T03:36:38.133Z,32.72
2023-03-30T03:39:04.976Z,32.75
2023-03-30T03:41:36.445Z,35.08
2023-03-30T03:44:07.336Z,32.25
2023-03-30T03:46:36.241Z,32.63
2023-03-30T03:49:03.379Z,31.02
2023-03-30T03:51:33.741Z,30.70
2023-03-30T03:54:00.800Z,33.35
2023-03-30T03:56:30.263Z,33.45
2023-03-30T03:58:57.391Z,33.05
2023-03-30T04:01:27.025Z,31.95
2023-03-30T04:03:53.734Z,33.05
2023-03-30T04:06:20.587Z,32.63
2023-03-30T04:08:47.621Z,29.90
2023-03-30T04:11:14.383Z,32.72
2023-03-30T04:13:51.083Z,32.42
2023-03-30T04:16:17.768Z,30.75
2023-03-30T04:18:44.553Z,31.65
2023-03-30T04:21:13.143Z,30.80
2023-03-30T04:23:49.137Z,31.17
2023-03-30T04:26:18.919Z,32.08
2023-03-30T04:28:48.970Z,31.00
2023-03-30T04:31:15.627Z,29.42
2023-03-30T04:33:51.880Z,32.15
2023-03-30T04:39:12.272Z,31.52
2023-03-30T04:41:46.078Z,34.33
2023-03-30T04:44:13.202Z,33.00
2023-03-30T04:46:47.592Z,34.35
2023-03-30T04:49:14.282Z,32.35
2023-03-30T04:51:44.216Z,31.27
2023-03-30T04:54:11.260Z,31.80
2023-03-30T04:56:40.766Z,32.10
2023-03-30T04:59:07.600Z,33.70
2023-03-30T05:01:34.358Z,31.42
2023-03-30T05:04:01.528Z,35.83
2023-03-30T05:06:29.633Z,32.90
2023-03-30T05:08:56.485Z,34.13
2023-03-30T05:11:23.146Z,33.17
2023-03-30T05:13:56.762Z,33.45
2023-03-30T05:16:23.685Z,35.28
2023-03-30T05:18:51.814Z,34.97
2023-03-30T05:21:18.605Z,33.17
2023-03-30T05:23:47.359Z,32.78
2023-03-30T05:26:14.173Z,33.22
2023-03-30T05:28:43.768Z,32.30
2023-03-30T05:31:10.453Z,31.52
2023-03-30T05:33:37.385Z,35.15
2023-03-30T05:36:04.756Z,33.08
2023-03-30T05:38:34.858Z,30.52
2023-03-30T06:24:30.098Z,22.90
2023-03-30T06:26:57.001Z,22.63
2023-03-30T06:29:23.736Z,21.33
2023-03-30T06:31:51.339Z,20.52
2023-03-30T06:34:18.121Z,20.83
2023-03-30T06:36:48.007Z,20.17
2023-03-30T06:39:15.422Z,19.27
2023-03-30T06:41:45.349Z,18.63
2023-03-30T06:44:14.799Z,17.67
2023-03-30T06:46:44.893Z,19.17
2023-03-30T06:49:13.102Z,17.92
2023-03-30T06:51:46.003Z,18.17
2023-03-30T06:54:12.859Z,15.43
2023-03-30T06:56:42.678Z,18.20
2023-03-30T06:59:09.393Z,18.38
2023-03-30T07:01:39.123Z,17.23
2023-03-30T07:04:05.812Z,17.73
2023-03-30T07:06:32.541Z,19.42
2023-03-30T07:08:59.365Z,18.73
2023-03-30T07:11:26.487Z,18.85
2023-03-30T07:13:56.219Z,19.00
2023-03-30T07:16:26.361Z,18.65
2023-03-30T07:18:53.140Z,18.40
2023-03-30T07:21:19.871Z,20.20
2023-03-30T07:23:46.473Z,19.27
2023-03-30T07:26:13.136Z,19.75
2023-03-30T07:28:45.229Z,20.45
2023-03-30T07:31:14.751Z,19.95
2023-03-30T07:33:46.864Z,20.20
2023-03-30T07:36:14.235Z,18.58
2023-03-30T07:38:47.612Z,21.02
2023-03-30T07:41:16.326Z,18.73
2023-03-30T07:43:46.361Z,19.73
2023-03-30T07:46:13.310Z,21.58
2023-03-30T07:48:46.223Z,19.75
2023-03-30T07:51:17.273Z,20.17
2023-03-30T07:53:44.040Z,21.33
2023-03-30T07:56:11.136Z,20.02
2023-03-30T07:58:43.964Z,20.13
2023-03-30T08:01:11.072Z,27.83
2023-03-30T08:03:48.138Z,28.20
2023-03-30T08:06:15.588Z,25.95
2023-03-30T08:08:46.908Z,23.58
2023-03-30T08:11:15.432Z,16.92
2023-03-30T08:13:48.306Z,18.27
2023-03-30T08:16:15.595Z,17.52
2023-03-30T08:18:47.204Z,15.80
2023-03-30T08:21:14.113Z,13.68
2023-03-30T08:23:50.782Z,14.10
2023-03-30T08:26:18.022Z,14.25
2023-03-30T08:28:46.311Z,13.02
2023-03-30T08:31:12.996Z,11.93
2023-03-30T08:33:43.275Z,11.20
2023-03-30T08:36:10.228Z,11.48
2023-03-30T08:38:45.279Z,11.13
2023-03-30T08:41:30.401Z,10.00
2023-03-30T08:44:33.467Z,10.48
2023-03-30T08:47:13.024Z,9.00
2023-03-30T08:49:57.936Z,12.27
2023-03-30T08:52:26.688Z,9.73
2023-03-30T08:54:55.046Z,8.55
2023-03-30T08:57:56.584Z,8.85
2023-03-30T09:00:49.653Z,8.05
2023-03-30T09:04:12.566Z,7.00
2023-03-30T09:06:53.708Z,7.72
2023-03-30T09:09:28.610Z,8.05
2023-03-30T09:12:13.780Z,7.10
2023-03-30T09:15:49.047Z,6.88
2023-03-30T09:18:48.309Z,8.30
2023-03-30T09:21:16.510Z,6.53
2023-03-30T09:23:46.778Z,8.38
2023-03-30T09:26:59.724Z,6.88
2023-03-30T09:29:33.185Z,7.30
2023-03-30T09:32:43.987Z,7.43
2023-03-30T09:35:42.027Z,7.50
2023-03-30T09:38:15.891Z,7.40
2023-03-30T09:41:28.573Z,6.75
2023-03-30T09:44:00.153Z,6.88
2023-03-30T09:46:26.851Z,6.45
2023-03-30T09:48:53.877Z,6.53
2023-03-30T09:51:31.228Z,7.70
2023-03-30T09:54:04.368Z,7.00
2023-03-30T09:56:47.667Z,6.72
2023-03-30T09:59:32.639Z,6.35
2023-03-30T10:02:20.659Z,11.05
2023-03-30T10:04:53.901Z,7.57
2023-03-30T10:07:28.988Z,6.40
2023-03-30T10:10:00.253Z,6.65
2023-03-30T10:12:30.834Z,7.00
2023-03-30T10:15:04.580Z,5.97
2023-03-30T10:17:32.297Z,6.55
2023-03-30T10:20:42.069Z,6.35
2023-03-30T10:23:19.092Z,6.60
2023-03-30T10:25:52.296Z,6.00
2023-03-30T10:28:31.036Z,6.87
2023-03-30T10:31:18.633Z,6.65
2023-03-30T10:33:47.531Z,5.70
2023-03-30T10:36:19.226Z,6.45
2023-03-30T10:38:47.849Z,5.97
2023-03-30T10:41:24.072Z,6.45
2023-03-30T10:43:54.921Z,5.95
2023-03-30T10:46:24.841Z,5.40
2023-03-30T10:49:46.875Z,5.25
2023-03-30T10:53:20.454Z,5.78
2023-03-30T10:56:09.628Z,6.82
2023-03-30T10:58:57.433Z,5.93
2023-03-30T11:02:01.910Z,5.30
2023-03-30T11:04:58.878Z,6.60
2023-03-30T11:07:48.474Z,5.90
2023-03-30T11:10:48.890Z,5.82
2023-03-30T11:13:26.154Z,6.35
2023-03-30T11:16:08.553Z,5.68
2023-03-30T11:19:16.966Z,5.18
2023-03-30T11:22:14.732Z,5.85
2023-03-30T11:24:50.746Z,6.10
2023-03-30T11:27:56.550Z,5.32
2023-03-30T11:30:34.830Z,4.80
2023-03-30T11:33:35.008Z,5.28
2023-03-30T11:37:07.068Z,4.72
2023-03-30T11:39:47.156Z,4.75
2023-03-30T11:42:56.613Z,5.25
2023-03-30T11:46:06.582Z,4.45
2023-03-30T11:49:04.519Z,4.43
2023-03-30T11:52:26.404Z,4.50
2023-03-30T11:55:27.930Z,3.65
2023-03-30T11:58:27.063Z,3.33
2023-03-30T12:01:28.671Z,3.92
2023-03-30T12:04:11.429Z,4.28
2023-03-30T12:06:59.950Z,4.18
2023-03-30T12:09:51.827Z,4.68
2023-03-30T12:12:34.532Z,3.70
2023-03-30T12:16:00.861Z,3.78
2023-03-30T12:19:08.517Z,3.80
2023-03-30T12:22:31.225Z,3.28
2023-03-30T12:26:04.588Z,3.75
2023-03-30T12:29:32.626Z,4.13
2023-03-30T12:32:05.142Z,4.63
2023-03-30T12:34:44.983Z,4.00
2023-03-30T12:37:34.740Z,4.03
2023-03-30T12:40:22.072Z,4.38
2023-03-30T12:44:17.234Z,4.60
2023-03-30T12:47:13.923Z,6.97
2023-03-30T12:50:38.426Z,5.40
2023-03-30T12:53:32.586Z,5.75
2023-03-30T12:57:02.977Z,6.60
2023-03-30T13:00:23.469Z,5.45
2023-03-30T13:03:35.785Z,4.25
2023-03-30T13:06:12.302Z,4.18
2023-03-30T13:08:44.621Z,4.43
2023-03-30T13:11:22.753Z,5.88
2023-03-30T13:14:25.363Z,5.07
2023-03-30T13:16:54.699Z,4.35
2023-03-30T13:19:44.638Z,6.07
2023-03-30T13:22:11.716Z,4.10
2023-03-30T13:25:45.283Z,4.40
2023-03-30T13:28:45.968Z,4.68
2023-03-30T13:31:54.801Z,4.10
2023-03-30T13:35:06.692Z,3.33
2023-03-30T13:38:12.169Z,4.38
2023-03-30T13:41:19.755Z,3.50
2023-03-30T13:44:11.057Z,3.92
2023-03-30T13:47:07.934Z,4.20
2023-03-30T13:50:07.669Z,3.97
2023-03-30T13:52:49.297Z,5.18
2023-03-30T13:55:41.789Z,4.05
2023-03-30T13:58:29.999Z,4.07
2023-03-30T14:01:12.324Z,5.57
2023-03-30T14:03:55.346Z,9.52
2023-03-30T14:06:29.225Z,3.42
2023-03-30T14:09:14.608Z,3.58
2023-03-30T14:11:59.650Z,3.45
2023-03-30T14:14:36.403Z,3.95
2023-03-30T14:17:26.814Z,4.22
2023-03-30T14:20:30.476Z,3.97
2023-03-30T14:23:03.154Z,4.13
2023-03-30T14:25:42.291Z,2.78
2023-03-30T14:28:19.951Z,3.03
2023-03-30T14:30:58.598Z,3.60
2023-03-30T14:33:26.310Z,3.13
2023-03-30T14:35:58.263Z,2.90
2023-03-30T14:38:38.277Z,3.40
2023-03-30T14:41:28.994Z,3.38
2023-03-30T14:44:06.302Z,4.38
2023-03-30T14:46:54.256Z,3.78
2023-03-30T14:49:29.906Z,3.60
2023-03-30T14:52:25.268Z,3.20
2023-03-30T14:55:05.312Z,2.83
2023-03-30T14:57:49.452Z,2.80
2023-03-30T15:00:22.326Z,3.42
2023-03-30T15:03:00.582Z,2.70
2023-03-30T15:05:36.076Z,2.90
2023-03-30T15:08:50.920Z,3.08
2023-03-30T15:11:32.163Z,2.78
2023-03-30T15:14:10.029Z,3.72
2023-03-30T15:16:38.553Z,3.63
2023-03-30T15:19:33.831Z,2.97
2023-03-30T15:22:17.393Z,3.55
2023-03-30T15:24:44.700Z,3.00
2023-03-30T15:27:19.060Z,3.63
2023-03-30T15:29:48.219Z,4.45
2023-03-30T15:32:36.561Z,4.82
2023-03-30T15:35:28.336Z,4.15
2023-03-30T15:38:09.251Z,4.80
2023-03-30T15:40:50.983Z,4.85
2023-03-30T15:43:32.849Z,5.18
2023-03-30T15:46:12.849Z,4.60
2023-03-30T15:54:54.024Z,7.18
2023-03-30T16:31:43.238Z,6.13
2023-03-30T16:34:09.967Z,4.88
2023-03-30T16:58:50.371Z,5.10
2023-03-30T17:42:23.081Z,6.13
2023-03-30T17:44:52.276Z,5.38
2023-03-30T17:47:20.746Z,6.28
2023-03-30T17:49:49.693Z,6.80
2023-03-30T17:52:16.958Z,6.10
2023-03-30T17:54:46.724Z,5.25
2023-03-30T17:57:14.712Z,7.68
2023-03-30T17:59:50.667Z,4.72
2023-03-30T18:02:17.605Z,6.57
2023-03-30T18:04:44.556Z,5.97
2023-03-30T18:26:41.248Z,7.50
2023-03-30T19:54:09.458Z,9.15
2023-03-30T19:56:37.222Z,8.32
2023-03-30T20:51:13.805Z,11.03
2023-03-30T21:31:51.983Z,11.07
2023-03-30T21:34:18.943Z,10.35
2023-03-30T21:36:46.576Z,11.32
2023-03-30T21:39:13.826Z,10.15
2023-03-30T21:41:46.521Z,10.55
2023-03-30T21:44:13.285Z,10.45
2023-03-30T21:46:48.962Z,12.98
2023-03-30T21:49:18.994Z,11.18
2023-03-30T21:51:45.876Z,11.75
2023-03-30T21:54:19.057Z,13.45
2023-03-30T21:56:46.203Z,13.50
2023-03-30T21:59:18.653Z,14.73
2023-03-30T22:01:45.798Z,12.32
2023-03-30T22:04:15.544Z,13.43
2023-03-30T22:06:50.452Z,13.10
2023-03-30T22:09:19.082Z,13.50
2023-03-30T22:11:46.122Z,15.63
2023-03-30T22:14:13.114Z,13.18
2023-03-30T22:16:46.600Z,14.63
2023-03-30T22:19:14.243Z,15.93
2023-03-30T22:21:43.972Z,13.27
2023-03-30T22:24:13.963Z,14.73
2023-03-30T22:26:43.579Z,12.77
2023-03-30T22:29:10.872Z,12.73
2023-03-30T22:31:42.137Z,14.63
2023-03-30T22:34:11.686Z,13.70
2023-03-30T22:36:43.869Z,13.45
2023-03-30T22:39:12.850Z,13.90
2023-03-30T22:41:42.030Z,15.02
2023-03-30T22:44:12.236Z,14.48
2023-03-30T22:46:39.047Z,15.25
2023-03-30T22:49:05.988Z,17.00
2023-03-30T22:51:33.949Z,18.98
2023-03-30T22:54:05.174Z,16.92
2023-03-30T22:56:32.012Z,17.83
2023-03-30T22:59:03.700Z,19.40
2023-03-30T23:01:32.378Z,17.05
2023-03-30T23:04:04.895Z,18.52
2023-03-30T23:06:35.996Z,20.88
2023-03-30T23:09:06.649Z,20.55
2023-03-30T23:11:39.884Z,16.13
2023-03-30T23:14:08.140Z,18.02
2023-03-30T23:16:37.599Z,15.90
2023-03-30T23:19:07.340Z,17.33
2023-03-30T23:21:35.734Z,14.43
2023-03-30T23:24:11.197Z,14.45
2023-03-30T23:26:44.121Z,17.00
2023-03-30T23:29:11.774Z,15.35
2023-03-30T23:31:38.881Z,13.02
2023-03-30T23:34:11.584Z,13.85
2023-03-30T23:36:39.863Z,13.02
2023-03-30T23:39:06.551Z,13.77
2023-03-30T23:41:33.255Z,14.57
2023-03-30T23:44:06.048Z,14.20
2023-03-30T23:46:36.659Z,12.23
2023-03-30T23:49:12.753Z,15.55
2023-03-30T23:51:53.690Z,13.70
2023-03-30T23:54:25.420Z,12.43
2023-03-30T23:56:57.297Z,15.88
2023-03-30T23:59:28.760Z,12.85
